»·PEaware :: N3539W KCMA-KDLO

N3539W :: KCMA-KDLO

FLIGHT INFORMATION

Flight Status: Arrived
Operator: Privately registered:
United States
More flights under this callsign
Pilot: Joerg P. (23850)
Aircraft: PIPER PA-32 SARATOGA
(PA32)
More flights by this aircraft type
Origin: KCMA Camarillo
United States
Destination: KDLO Delano Mun
United States
More flights between these airports :: More routes between these airports
Route:
File this flight plan on PilotEdge
Remarks:
Altitude:
(Current/Filed)
8,500ft
Speed:
(Current/Filed)
130kts
Departed: 19-Jul-20 01:52 PM
Arrived: 19-Jul-20 03:02 PM
Distance/Time
Traveled:
92nm/1:09
Distance/Time
To Go:
Arrived

Flight Plot

Page will automatically refresh every two minutes.


Map Options




Map Legend


Flown Route
Filed Route
Departure Airport
Arrival Airport
Navaid (VOR, NDB)
Fix

Horizontal Profiles

Position Reports

Time Latitude Longitude Heading Altitude Ground
Speed
19-Jul-20 13:45 34.210350 -119.076468 91 81ft 0kts
19-Jul-20 13:46 34.210350 -119.076468 91 81ft 0kts
19-Jul-20 13:46 34.210350 -119.076468 91 81ft 0kts
19-Jul-20 13:47 34.210850 -119.077498 266 81ft 10kts
19-Jul-20 13:49 34.211278 -119.082694 271 78ft 18kts
19-Jul-20 13:49 34.212625 -119.084100 331 80ft 0kts
19-Jul-20 13:50 34.212690 -119.084143 330 80ft 0kts
19-Jul-20 13:51 34.213662 -119.088375 266 78ft 73kts
19-Jul-20 13:52 34.211672 -119.119723 269 913ft 96kts
19-Jul-20 13:53 34.233583 -119.129785 23 1885ft 106kts
19-Jul-20 13:54 34.259237 -119.111970 18 2806ft 103kts
19-Jul-20 13:55 34.286079 -119.100204 349 3598ft 103kts
19-Jul-20 13:56 34.312553 -119.111285 329 4388ft 99kts
19-Jul-20 13:57 34.338635 -119.122966 331 5119ft 100kts
19-Jul-20 13:58 34.364594 -119.136089 324 5882ft 102kts
19-Jul-20 13:59 34.394175 -119.134985 10 6811ft 110kts
19-Jul-20 14:00 34.421431 -119.113986 34 7566ft 121kts
19-Jul-20 14:01 34.444547 -119.084264 61 8311ft 128kts
19-Jul-20 14:02 34.454676 -119.044154 64 9086ft 126kts
19-Jul-20 14:03 34.462577 -119.003515 81 9844ft 121kts
19-Jul-20 14:04 34.472789 -118.967919 25 10454ft 126kts
19-Jul-20 14:05 34.508330 -118.955798 1 10627ft 137kts
19-Jul-20 14:06 34.546476 -118.964346 342 10621ft 147kts
19-Jul-20 14:07 34.584906 -118.978808 336 10619ft 147kts
19-Jul-20 14:08 34.619611 -119.001992 302 10576ft 143kts
19-Jul-20 14:09 34.638310 -119.044203 308 10479ft 145kts
19-Jul-20 14:10 34.675973 -119.058232 358 10384ft 150kts
19-Jul-20 14:11 34.716903 -119.052901 357 10414ft 147kts
19-Jul-20 14:12 34.757678 -119.054539 352 10478ft 143kts
19-Jul-20 14:13 34.795704 -119.065878 336 10578ft 144kts
19-Jul-20 14:14 34.833378 -119.084253 326 10484ft 147kts
19-Jul-20 14:15 34.869303 -119.107636 329 10480ft 148kts
19-Jul-20 14:16 34.907665 -119.130647 334 10168ft 155kts
19-Jul-20 14:17 34.950129 -119.149628 342 9538ft 165kts
19-Jul-20 14:18 34.995428 -119.158235 355 9007ft 166kts
19-Jul-20 14:19 35.042730 -119.159652 355 8284ft 170kts
19-Jul-20 14:20 35.052070 -119.159901 356 8149ft 172kts
19-Jul-20 14:21 35.052070 -119.159901 356 8149ft 172kts
19-Jul-20 14:22 35.052070 -119.159901 356 8149ft 172kts
19-Jul-20 14:23 35.052070 -119.159901 356 8149ft 172kts
19-Jul-20 14:24 35.052070 -119.159901 356 8149ft 172kts
19-Jul-20 14:25 35.052070 -119.159901 356 8149ft 172kts
19-Jul-20 14:26 35.052070 -119.159901 356 8149ft 172kts
19-Jul-20 14:27 35.052070 -119.159901 356 8149ft 172kts
19-Jul-20 14:28 35.052070 -119.159901 356 8149ft 172kts
19-Jul-20 14:29 35.052070 -119.159901 356 8149ft 172kts
19-Jul-20 14:30 35.052070 -119.159901 356 8149ft 172kts
19-Jul-20 14:31 35.052070 -119.159901 356 8149ft 172kts
19-Jul-20 14:32 35.052070 -119.159901 356 8149ft 172kts
19-Jul-20 14:33 35.052070 -119.159901 356 8149ft 172kts
19-Jul-20 14:34 35.052070 -119.159901 356 8149ft 172kts
19-Jul-20 14:35 35.052070 -119.159901 356 8149ft 172kts
19-Jul-20 14:36 35.052070 -119.159901 356 8149ft 172kts
19-Jul-20 14:37 35.052070 -119.159901 356 8149ft 172kts
19-Jul-20 14:38 35.052070 -119.159901 356 8149ft 172kts
19-Jul-20 14:39 35.052070 -119.159901 356 8149ft 172kts
19-Jul-20 14:40 35.089724 -119.162751 352 7596ft 160kts
19-Jul-20 14:41 35.134086 -119.168557 350 6614ft 162kts
19-Jul-20 14:42 35.177472 -119.175560 354 5827ft 155kts
19-Jul-20 14:43 35.220593 -119.174106 359 5036ft 155kts
19-Jul-20 14:44 35.263477 -119.173325 355 4396ft 153kts
19-Jul-20 14:45 35.301446 -119.183480 340 4451ft 134kts
19-Jul-20 14:46 35.337500 -119.193658 347 4514ft 132kts
19-Jul-20 14:47 35.373213 -119.203988 347 4592ft 134kts
19-Jul-20 14:48 35.410100 -119.209604 356 4631ft 136kts
19-Jul-20 14:49 35.448120 -119.208325 356 4545ft 141kts
19-Jul-20 14:50 35.486417 -119.216716 343 4360ft 142kts
19-Jul-20 14:51 35.524693 -119.229737 347 4034ft 145kts
19-Jul-20 14:52 35.564659 -119.233328 0 3592ft 146kts
19-Jul-20 14:53 35.605568 -119.238552 345 2936ft 151kts
19-Jul-20 14:54 35.646926 -119.247305 353 2268ft 149kts
19-Jul-20 14:55 35.686661 -119.250496 349 1861ft 139kts
19-Jul-20 14:56 35.723227 -119.264937 343 1412ft 134kts
19-Jul-20 14:57 35.756137 -119.267330 65 1353ft 124kts
19-Jul-20 14:58 35.729922 -119.246476 165 1248ft 114kts
19-Jul-20 14:59 35.720673 -119.226601 12 843ft 80kts
19-Jul-20 15:00 35.741529 -119.234565 338 317ft 51kts
19-Jul-20 15:01 35.745540 -119.238834 19 316ft 8kts
19-Jul-20 15:02 35.745592 -119.238804 28 316ft 0kts

Navigation Log

Ident Type
Flight plan parsing failed, navigation log unavailable